createdAt,value
2022-10-13T00:01:56.483Z,100.00
2022-10-13T00:04:57.996Z,100.00
2022-10-13T00:08:00.245Z,100.00
2022-10-13T00:11:10.758Z,100.00
2022-10-13T00:14:12.266Z,99.36
2022-10-13T00:17:13.922Z,98.70
2022-10-13T00:20:15.442Z,97.78
2022-10-13T00:23:17.109Z,96.74
2022-10-13T00:26:18.686Z,95.39
2022-10-13T00:29:20.198Z,95.52
2022-10-13T00:32:21.837Z,94.69
2022-10-13T00:35:23.430Z,93.59
2022-10-13T00:38:24.990Z,93.08
2022-10-13T00:41:26.497Z,92.63
2022-10-13T00:44:46.777Z,92.15
2022-10-13T00:47:50.381Z,92.45
2022-10-13T00:50:51.969Z,92.22
2022-10-13T00:53:53.660Z,92.44
2022-10-13T00:56:57.588Z,91.83
2022-10-13T00:59:59.121Z,91.91
2022-10-13T01:03:01.132Z,92.29
2022-10-13T01:06:02.856Z,92.79
2022-10-13T01:09:04.409Z,94.08
2022-10-13T01:12:11.919Z,94.26
2022-10-13T01:15:16.625Z,94.48
2022-10-13T01:18:21.523Z,94.26
2022-10-13T01:21:58.806Z,93.78
2022-10-13T01:25:08.652Z,93.94
2022-10-13T01:28:20.702Z,94.05
2022-10-13T01:31:22.255Z,94.35
2022-10-13T01:34:23.765Z,94.64
2022-10-13T01:37:27.715Z,95.22
2022-10-13T01:40:30.372Z,95.21
2022-10-13T01:43:36.725Z,94.75
2022-10-13T01:46:38.583Z,94.89
2022-10-13T01:49:40.112Z,95.00
2022-10-13T01:52:41.617Z,95.31
2022-10-13T01:55:53.760Z,93.95
2022-10-13T01:58:55.376Z,95.63
2022-10-13T02:02:07.037Z,96.46
2022-10-13T02:05:08.748Z,96.53
2022-10-13T02:08:16.150Z,97.71
2022-10-13T02:11:18.506Z,96.80
2022-10-13T02:14:21.432Z,96.53
2022-10-13T02:17:23.004Z,97.19
2022-10-13T02:20:24.573Z,97.79
2022-10-13T02:23:26.182Z,97.83
2022-10-13T02:26:27.769Z,97.22
2022-10-13T02:29:35.553Z,97.72
2022-10-13T02:32:37.178Z,98.77
2022-10-13T02:35:38.972Z,98.79
2022-10-13T02:38:40.506Z,98.54
2022-10-13T02:41:42.093Z,98.77
2022-10-13T02:44:43.623Z,98.52
2022-10-13T02:47:45.585Z,98.34
2022-10-13T02:50:47.721Z,98.18
2022-10-13T02:53:49.321Z,97.88
2022-10-13T02:56:50.854Z,97.63
2022-10-13T02:59:52.527Z,97.99
2022-10-13T03:02:54.983Z,97.57
2022-10-13T03:05:56.549Z,97.66
2022-10-13T03:08:59.281Z,97.29
2022-10-13T03:12:00.880Z,96.19
2022-10-13T03:15:02.402Z,98.41
2022-10-13T03:18:04.049Z,98.19
2022-10-13T03:21:06.488Z,97.29
2022-10-13T03:24:08.332Z,97.06
2022-10-13T03:27:09.893Z,96.78
2022-10-13T03:30:11.765Z,95.83
2022-10-13T03:33:13.698Z,95.80
2022-10-13T03:36:15.324Z,94.86
2022-10-13T03:39:17.199Z,94.34
2022-10-13T03:42:18.983Z,93.99
2022-10-13T03:45:22.078Z,93.56
2022-10-13T03:48:23.753Z,93.17
2022-10-13T03:51:25.592Z,92.90
2022-10-13T03:54:27.482Z,93.52
2022-10-13T03:57:29.097Z,93.17
2022-10-13T04:00:30.637Z,93.30
2022-10-13T04:03:32.536Z,94.13
2022-10-13T04:06:34.073Z,94.75
2022-10-13T04:09:35.593Z,94.57
2022-10-13T04:12:37.149Z,94.83
2022-10-13T04:15:39.217Z,94.85
2022-10-13T04:18:44.432Z,94.61
2022-10-13T04:21:46.456Z,94.23
2022-10-13T04:24:48.109Z,93.24
2022-10-13T04:27:50.406Z,92.67
2022-10-13T04:30:52.022Z,91.77
2022-10-13T04:33:53.572Z,91.17
2022-10-13T04:36:55.257Z,90.18
2022-10-13T04:39:56.852Z,89.08
2022-10-13T04:42:58.449Z,88.41
2022-10-13T04:46:10.278Z,88.00
2022-10-13T04:49:11.889Z,87.32
2022-10-13T04:52:13.413Z,86.50
2022-10-13T04:55:15.023Z,85.45
2022-10-13T04:58:21.596Z,84.86
2022-10-13T05:01:24.679Z,84.70
2022-10-13T05:04:26.277Z,83.98
2022-10-13T05:07:27.910Z,83.71
2022-10-13T05:10:34.550Z,83.72
2022-10-13T05:13:36.379Z,83.82
2022-10-13T05:16:37.929Z,83.79
2022-10-13T05:19:39.488Z,83.60
2022-10-13T05:22:41.039Z,83.58
2022-10-13T05:25:42.726Z,84.71
2022-10-13T05:28:47.587Z,85.65
2022-10-13T05:31:49.204Z,87.33
2022-10-13T05:34:50.781Z,89.33
2022-10-13T05:37:52.348Z,90.30
2022-10-13T05:40:53.889Z,89.17
2022-10-13T05:43:59.528Z,89.75
2022-10-13T05:47:05.109Z,86.36
2022-10-13T05:50:09.069Z,84.23
2022-10-13T05:53:11.590Z,83.25
2022-10-13T05:56:14.659Z,82.36
2022-10-13T05:59:16.402Z,80.42
2022-10-13T06:02:23.289Z,79.34
2022-10-13T06:05:25.073Z,79.02
2022-10-13T06:08:27.484Z,79.17
2022-10-13T06:11:29.039Z,79.59
2022-10-13T06:14:31.301Z,81.13
2022-10-13T06:17:35.627Z,82.56
2022-10-13T06:20:37.257Z,82.87
2022-10-13T06:23:39.586Z,83.58
2022-10-13T06:26:41.330Z,84.14
2022-10-13T06:29:42.875Z,84.15
2022-10-13T06:32:44.428Z,84.73
2022-10-13T06:35:46.013Z,85.48
2022-10-13T06:38:48.261Z,86.32
2022-10-13T06:41:52.638Z,85.65
2022-10-13T06:44:55.012Z,85.83
2022-10-13T06:47:56.644Z,84.28
2022-10-13T06:51:02.278Z,82.95
2022-10-13T06:54:03.892Z,81.47
2022-10-13T06:57:06.128Z,82.75
2022-10-13T07:00:08.099Z,83.25
2022-10-13T07:03:10.901Z,82.47
2022-10-13T07:06:12.611Z,83.13
2022-10-13T07:09:14.281Z,82.78
2022-10-13T07:12:16.060Z,82.12
2022-10-13T07:15:17.851Z,81.51
2022-10-13T07:18:19.977Z,81.30
2022-10-13T07:21:21.819Z,80.48
2022-10-13T07:24:23.510Z,79.57
2022-10-13T07:27:25.375Z,80.09
2022-10-13T07:30:27.116Z,79.26
2022-10-13T07:33:28.794Z,78.25
2022-10-13T07:36:31.143Z,78.39
2022-10-13T07:39:32.853Z,78.44
2022-10-13T07:42:34.461Z,81.17
2022-10-13T07:45:36.041Z,82.68
2022-10-13T07:48:38.018Z,84.17
2022-10-13T07:51:39.817Z,85.46
2022-10-13T07:54:42.849Z,86.16
2022-10-13T07:57:44.387Z,86.65
2022-10-13T08:00:45.910Z,85.94
2022-10-13T08:03:50.342Z,83.18
2022-10-13T08:06:53.053Z,82.16
2022-10-13T08:09:54.614Z,83.12
2022-10-13T08:12:56.322Z,83.90
2022-10-13T08:16:00.001Z,84.45
2022-10-13T08:19:07.957Z,84.62
2022-10-13T08:22:10.484Z,85.19
2022-10-13T08:25:14.772Z,86.02
2022-10-13T08:28:20.315Z,86.31
2022-10-13T08:31:22.257Z,86.51
2022-10-13T08:34:24.203Z,88.25
2022-10-13T08:37:25.804Z,84.68
2022-10-13T08:40:27.385Z,84.54
2022-10-13T08:43:28.897Z,83.16
2022-10-13T08:46:34.805Z,81.58
2022-10-13T08:49:36.319Z,82.87
2022-10-13T08:52:56.702Z,83.98
2022-10-13T08:56:03.329Z,82.84
2022-10-13T08:59:07.364Z,80.35
2022-10-13T09:02:13.913Z,81.46
2022-10-13T09:05:41.599Z,78.61
2022-10-13T09:08:44.211Z,76.54
2022-10-13T09:11:46.845Z,76.96
2022-10-13T09:14:59.905Z,76.64
2022-10-13T09:18:08.770Z,76.91
2022-10-13T09:21:21.964Z,77.85
2022-10-13T09:24:24.630Z,74.87
2022-10-13T09:27:43.638Z,76.58
2022-10-13T09:30:49.005Z,72.60
2022-10-13T09:34:23.690Z,72.92
2022-10-13T09:37:28.342Z,72.70
2022-10-13T09:40:32.166Z,69.25
2022-10-13T09:43:34.720Z,68.78
2022-10-13T09:46:37.652Z,66.89
2022-10-13T09:49:40.002Z,65.31
2022-10-13T09:52:42.550Z,65.08
2022-10-13T09:55:48.520Z,61.68
2022-10-13T09:58:57.708Z,60.32
2022-10-13T10:02:08.101Z,60.09
2022-10-13T10:05:23.140Z,57.22
2022-10-13T10:08:33.797Z,58.77
2022-10-13T10:11:41.057Z,58.74
2022-10-13T10:14:42.587Z,59.62
2022-10-13T10:17:46.846Z,58.29
2022-10-13T10:20:48.393Z,59.66
2022-10-13T10:23:51.998Z,59.18
2022-10-13T10:26:53.617Z,59.90
2022-10-13T10:29:58.461Z,57.51
2022-10-13T10:33:03.730Z,57.53
2022-10-13T10:36:07.365Z,56.76
2022-10-13T10:39:14.986Z,58.55
2022-10-13T10:42:22.469Z,59.56
2022-10-13T10:45:28.913Z,59.78
2022-10-13T10:48:30.706Z,58.60
2022-10-13T10:51:33.809Z,53.80
2022-10-13T10:54:45.060Z,54.34
2022-10-13T10:57:48.277Z,52.45
2022-10-13T11:01:12.877Z,52.95
2022-10-13T11:04:38.512Z,49.30
2022-10-13T11:07:40.077Z,49.67
2022-10-13T11:10:41.686Z,47.33
2022-10-13T11:13:55.968Z,48.03
2022-10-13T11:17:06.754Z,45.80
2022-10-13T11:20:17.987Z,45.88
2022-10-13T11:23:19.570Z,44.84
2022-10-13T11:26:28.761Z,44.77
2022-10-13T11:29:51.854Z,43.34
2022-10-13T11:32:56.300Z,43.45
2022-10-13T11:35:57.842Z,41.50
2022-10-13T11:39:13.572Z,42.31
2022-10-13T11:42:27.288Z,41.95
2022-10-13T11:45:47.407Z,42.58
2022-10-13T11:48:52.133Z,43.40
2022-10-13T11:52:02.801Z,42.93
2022-10-13T11:55:20.120Z,43.13
2022-10-13T11:58:24.047Z,40.88
2022-10-13T12:01:25.865Z,43.05
2022-10-13T12:04:28.084Z,41.36
2022-10-13T12:07:32.363Z,39.75
2022-10-13T12:10:35.795Z,40.63
2022-10-13T12:13:37.837Z,39.35
2022-10-13T12:16:39.415Z,40.01
2022-10-13T12:19:41.448Z,41.30
2022-10-13T12:22:47.898Z,43.25
2022-10-13T12:25:49.986Z,40.15
2022-10-13T12:28:56.142Z,39.66
2022-10-13T12:31:58.632Z,40.77
2022-10-13T12:35:18.888Z,42.08
2022-10-13T12:38:21.536Z,43.77
2022-10-13T12:41:25.077Z,42.48
2022-10-13T12:44:30.825Z,42.47
2022-10-13T12:47:58.808Z,40.23
2022-10-13T12:51:13.238Z,42.47
2022-10-13T12:54:20.463Z,44.08
2022-10-13T12:57:23.173Z,40.59
2022-10-13T13:00:26.694Z,42.27
2022-10-13T13:03:29.067Z,42.09
2022-10-13T13:06:31.998Z,40.91
2022-10-13T13:09:34.878Z,40.21
2022-10-13T13:12:36.804Z,41.24
2022-10-13T13:15:41.974Z,40.19
2022-10-13T13:18:44.275Z,41.00
2022-10-13T13:21:45.936Z,41.50
2022-10-13T13:24:47.645Z,40.71
2022-10-13T13:27:49.814Z,40.70
2022-10-13T13:30:51.327Z,42.00
2022-10-13T13:33:52.885Z,41.31
2022-10-13T13:36:54.366Z,42.67
2022-10-13T13:39:55.997Z,41.78
2022-10-13T13:42:57.522Z,40.82
2022-10-13T13:46:05.919Z,41.02
2022-10-13T13:49:07.526Z,40.59
2022-10-13T13:52:09.042Z,39.82
2022-10-13T13:55:10.586Z,40.71
2022-10-13T13:58:12.109Z,38.90
2022-10-13T14:01:14.223Z,38.29
2022-10-13T14:04:15.738Z,38.36
2022-10-13T14:07:17.447Z,38.88
2022-10-13T14:10:20.864Z,38.46
2022-10-13T14:13:22.430Z,37.48
2022-10-13T14:16:24.056Z,37.51
2022-10-13T14:19:26.141Z,36.87
2022-10-13T14:22:27.722Z,37.64
2022-10-13T14:25:29.245Z,37.84
2022-10-13T14:28:30.871Z,39.04
2022-10-13T14:31:33.282Z,39.19
2022-10-13T14:34:34.801Z,39.30
2022-10-13T14:37:36.595Z,36.57
2022-10-13T14:40:42.011Z,36.83
2022-10-13T14:43:43.780Z,37.95
2022-10-13T14:46:45.765Z,38.99
2022-10-13T14:49:47.324Z,40.01
2022-10-13T14:52:48.956Z,40.63
2022-10-13T14:55:50.464Z,38.54
2022-10-13T14:58:52.914Z,38.76
2022-10-13T15:01:54.453Z,39.27
2022-10-13T15:04:56.183Z,39.53
2022-10-13T15:07:57.727Z,39.03
2022-10-13T15:11:00.194Z,41.14
2022-10-13T15:14:01.752Z,40.11
2022-10-13T15:17:04.085Z,39.99
2022-10-13T15:20:06.425Z,40.42
2022-10-13T15:23:08.120Z,40.93
2022-10-13T15:26:10.884Z,41.39
2022-10-13T15:29:12.522Z,39.75
2022-10-13T15:32:18.680Z,40.05
2022-10-13T15:35:24.978Z,38.90
2022-10-13T15:38:26.758Z,39.33
2022-10-13T15:41:28.317Z,39.57
2022-10-13T15:44:45.445Z,39.60
2022-10-13T15:47:52.974Z,41.05
2022-10-13T15:50:54.513Z,42.10
2022-10-13T15:53:56.081Z,46.00
2022-10-13T15:56:57.990Z,46.11
2022-10-13T15:59:59.546Z,46.85
2022-10-13T16:03:01.183Z,48.67
2022-10-13T16:06:04.008Z,47.87
2022-10-13T16:09:05.653Z,47.96
2022-10-13T16:12:07.322Z,48.30
2022-10-13T16:15:09.477Z,48.22
2022-10-13T16:18:11.740Z,47.66
2022-10-13T16:21:18.511Z,49.86
2022-10-13T16:24:20.671Z,54.13
2022-10-13T16:27:22.380Z,52.39
2022-10-13T16:30:24.066Z,51.31
2022-10-13T16:33:25.650Z,52.30
2022-10-13T16:36:27.397Z,53.11
2022-10-13T16:39:29.020Z,54.50
2022-10-13T16:42:30.659Z,55.99
2022-10-13T16:45:54.976Z,57.01
2022-10-13T16:48:53.973Z,59.67
2022-10-13T16:51:55.914Z,61.31
2022-10-13T16:54:57.625Z,62.89
2022-10-13T16:57:59.181Z,64.45
2022-10-13T17:01:05.618Z,66.10
2022-10-13T17:04:07.302Z,67.50
2022-10-13T17:07:08.870Z,68.39
2022-10-13T17:10:10.441Z,68.57
2022-10-13T17:13:12.654Z,69.64
2022-10-13T17:16:14.889Z,70.14
2022-10-13T17:19:19.288Z,70.75
2022-10-13T17:22:20.851Z,71.41
2022-10-13T17:25:22.501Z,71.97
2022-10-13T17:28:26.722Z,71.94
2022-10-13T17:31:28.440Z,72.62
2022-10-13T17:34:30.035Z,73.21
2022-10-13T17:37:34.236Z,73.27
2022-10-13T17:40:35.975Z,73.90
2022-10-13T17:43:38.346Z,74.45
2022-10-13T17:46:40.093Z,75.27
2022-10-13T17:49:41.735Z,75.84
2022-10-13T17:52:45.649Z,76.35
2022-10-13T17:55:47.385Z,76.92
2022-10-13T17:58:50.013Z,77.08
2022-10-13T18:01:52.264Z,77.27
2022-10-13T18:04:53.838Z,77.42
2022-10-13T18:07:58.736Z,76.86
2022-10-13T18:11:07.932Z,76.04
2022-10-13T18:14:09.937Z,76.67
2022-10-13T18:17:15.126Z,76.42
2022-10-13T18:20:16.697Z,76.64
2022-10-13T18:23:18.826Z,76.99
2022-10-13T18:26:20.843Z,76.81
2022-10-13T18:29:22.364Z,76.62
2022-10-13T18:32:23.969Z,77.94
2022-10-13T18:35:29.957Z,77.56
2022-10-13T18:38:34.070Z,78.69
2022-10-13T18:41:35.978Z,79.66
2022-10-13T18:44:37.565Z,80.10
2022-10-13T18:47:39.121Z,80.31
2022-10-13T18:50:41.248Z,80.70
2022-10-13T18:53:43.498Z,80.67
2022-10-13T18:56:45.922Z,80.70
2022-10-13T18:59:47.476Z,81.86
2022-10-13T19:02:49.147Z,82.03
2022-10-13T19:05:51.693Z,82.75
2022-10-13T19:08:57.458Z,83.51
2022-10-13T19:11:59.164Z,84.06
2022-10-13T19:15:00.887Z,84.22
2022-10-13T19:18:02.384Z,84.38
2022-10-13T19:21:04.146Z,84.54
2022-10-13T19:24:06.152Z,84.94
2022-10-13T19:27:07.765Z,84.39
2022-10-13T19:30:11.141Z,84.73
2022-10-13T19:33:13.176Z,84.21
2022-10-13T19:36:21.490Z,83.88
2022-10-13T19:39:24.116Z,83.22
2022-10-13T19:42:25.712Z,83.15
2022-10-13T19:45:27.469Z,83.05
2022-10-13T19:48:29.073Z,83.78
2022-10-13T19:51:30.603Z,83.93
2022-10-13T19:54:35.636Z,84.30
2022-10-13T19:57:37.150Z,84.02
2022-10-13T20:00:38.735Z,83.67
2022-10-13T20:03:40.334Z,83.65
2022-10-13T20:06:41.852Z,82.75
2022-10-13T20:09:43.533Z,83.19
2022-10-13T20:12:45.086Z,83.23
2022-10-13T20:15:46.669Z,83.44
2022-10-13T20:18:52.409Z,83.94
2022-10-13T20:21:54.255Z,84.62
2022-10-13T20:24:56.422Z,85.83
2022-10-13T20:27:58.102Z,87.36
2022-10-13T20:31:03.505Z,88.02
2022-10-13T20:34:05.117Z,87.93
2022-10-13T20:37:06.861Z,87.33
2022-10-13T20:40:11.029Z,87.52
2022-10-13T20:43:12.513Z,87.53
2022-10-13T20:46:14.147Z,87.89
2022-10-13T20:49:15.656Z,88.34
2022-10-13T20:52:17.191Z,89.26
2022-10-13T20:55:22.838Z,88.50
2022-10-13T20:58:27.980Z,88.56
2022-10-13T21:01:30.976Z,89.76
2022-10-13T21:04:32.546Z,90.54
2022-10-13T21:07:34.105Z,89.53
2022-10-13T21:10:36.612Z,89.24
2022-10-13T21:13:38.938Z,89.79
2022-10-13T21:16:40.500Z,90.86
2022-10-13T21:19:45.946Z,90.34
2022-10-13T21:22:47.492Z,90.66
2022-10-13T21:25:48.981Z,91.06
2022-10-13T21:28:50.817Z,91.60
2022-10-13T21:31:52.620Z,91.59
2022-10-13T21:34:54.265Z,91.44
2022-10-13T21:37:56.307Z,91.77
2022-10-13T21:40:57.872Z,92.05
2022-10-13T21:43:59.406Z,92.47
2022-10-13T21:47:04.485Z,92.88
2022-10-13T21:50:06.272Z,92.87
2022-10-13T21:53:07.842Z,92.74
2022-10-13T21:56:10.168Z,92.41
2022-10-13T21:59:12.393Z,91.98
2022-10-13T22:02:13.919Z,91.84
2022-10-13T22:05:15.445Z,92.16
2022-10-13T22:08:19.496Z,92.30
2022-10-13T22:11:22.085Z,92.85
2022-10-13T22:14:23.609Z,93.24
2022-10-13T22:17:26.605Z,93.57
2022-10-13T22:20:28.205Z,93.44
2022-10-13T22:23:30.167Z,93.38
2022-10-13T22:26:32.443Z,92.74
2022-10-13T22:29:34.070Z,92.82
2022-10-13T22:32:35.636Z,93.06
2022-10-13T22:35:37.202Z,93.09
2022-10-13T22:38:38.731Z,93.90
2022-10-13T22:41:41.617Z,94.10
2022-10-13T22:44:43.144Z,93.97
2022-10-13T22:47:44.717Z,94.63
2022-10-13T22:50:46.242Z,96.17
2022-10-13T22:53:48.020Z,96.52
2022-10-13T22:56:49.574Z,97.03
2022-10-13T22:59:51.161Z,95.77
2022-10-13T23:02:52.682Z,94.76
2022-10-13T23:05:54.252Z,94.14
2022-10-13T23:08:56.277Z,93.62
2022-10-13T23:11:59.894Z,93.74
2022-10-13T23:15:02.396Z,93.95
2022-10-13T23:18:04.122Z,94.15
2022-10-13T23:21:06.361Z,94.29
2022-10-13T23:24:08.357Z,94.74
2022-10-13T23:27:09.849Z,94.51
2022-10-13T23:30:11.786Z,95.24
2022-10-13T23:33:13.301Z,97.18
2022-10-13T23:36:18.225Z,97.69
2022-10-13T23:39:22.358Z,98.50
2022-10-13T23:42:23.918Z,98.22
2022-10-13T23:45:25.429Z,97.35
2022-10-13T23:48:27.214Z,97.56
2022-10-13T23:51:28.766Z,97.44
2022-10-13T23:54:31.074Z,99.19
2022-10-13T23:57:32.607Z,98.63
